createdAt,value
2019-04-30T00:00:00.526Z,102035.11
2019-04-30T00:02:45.618Z,102029.36
2019-04-30T00:05:20.626Z,102021.95
2019-04-30T00:07:58.438Z,102029.05
2019-04-30T00:10:36.905Z,102028.44
2019-04-30T00:13:03.585Z,102028.09
2019-04-30T00:15:35.686Z,102023.76
2019-04-30T00:18:06.688Z,102028.03
2019-04-30T00:20:45.304Z,102025.19
2019-04-30T00:23:18.114Z,102028.58
2019-04-30T00:25:49.049Z,102023.29
2019-04-30T00:28:20.914Z,102025.14
2019-04-30T00:30:51.751Z,102023.91
2019-04-30T00:33:25.164Z,102022.41
2019-04-30T00:35:58.001Z,102024.09
2019-04-30T00:38:36.025Z,102019.66
2019-04-30T00:41:06.969Z,102011.02
2019-04-30T00:43:37.665Z,102015.98
2019-04-30T00:46:09.682Z,102016.41
2019-04-30T00:48:40.294Z,102012.63
2019-04-30T00:51:18.134Z,102019.66
2019-04-30T00:53:51.377Z,102018.97
2019-04-30T00:56:24.620Z,102013.15
2019-04-30T00:58:57.792Z,102010.18
2019-04-30T01:01:48.215Z,102011.53
2019-04-30T01:04:34.969Z,102017.08
2019-04-30T01:07:08.726Z,102009.10
2019-04-30T01:09:43.588Z,102004.19
2019-04-30T01:12:35.924Z,101998.09
2019-04-30T01:15:06.734Z,101999.64
2019-04-30T01:17:34.713Z,101992.63
2019-04-30T01:20:05.792Z,101999.64
2019-04-30T01:22:38.849Z,101994.78
2019-04-30T01:25:13.410Z,101993.58
2019-04-30T01:27:45.851Z,101988.56
2019-04-30T01:30:18.719Z,101999.11
2019-04-30T01:32:56.475Z,101993.23
2019-04-30T01:35:23.879Z,101991.20
2019-04-30T01:37:54.464Z,101994.47
2019-04-30T01:40:25.125Z,101982.50
2019-04-30T01:42:56.103Z,101988.37
2019-04-30T01:45:30.110Z,101986.35
2019-04-30T01:48:08.447Z,101985.89
2019-04-30T01:50:33.792Z,101986.09
2019-04-30T01:53:04.753Z,101986.97
2019-04-30T01:55:47.011Z,101981.56
2019-04-30T01:58:34.334Z,101987.37
2019-04-30T02:01:06.702Z,101985.05
2019-04-30T02:03:37.347Z,101981.81
2019-04-30T02:06:11.423Z,101989.04
2019-04-30T02:08:43.498Z,101985.14
2019-04-30T02:11:14.178Z,101991.34
2019-04-30T02:13:46.896Z,101992.84
2019-04-30T02:16:21.147Z,101989.80
2019-04-30T02:18:53.954Z,101987.95
2019-04-30T02:21:25.742Z,101987.03
2019-04-30T02:23:56.704Z,101992.43
2019-04-30T02:26:35.693Z,101995.05
2019-04-30T02:29:06.511Z,101992.63
2019-04-30T02:31:40.570Z,101991.16
2019-04-30T02:34:11.506Z,101988.30
2019-04-30T02:36:43.789Z,101982.35
2019-04-30T02:39:14.415Z,101985.21
2019-04-30T02:41:45.379Z,101995.25
2019-04-30T02:44:16.555Z,101993.90
2019-04-30T02:46:50.324Z,101990.66
2019-04-30T02:49:21.663Z,101985.33
2019-04-30T02:51:52.540Z,101988.96
2019-04-30T02:54:29.632Z,101987.95
2019-04-30T02:57:02.092Z,101986.69
2019-04-30T02:59:32.701Z,101988.49
2019-04-30T03:02:03.439Z,101989.50
2019-04-30T03:04:34.055Z,101988.92
2019-04-30T03:07:04.930Z,101995.98
2019-04-30T03:09:39.384Z,101999.77
2019-04-30T03:12:10.137Z,101993.47
2019-04-30T03:14:40.725Z,101996.09
2019-04-30T03:17:23.471Z,101984.09
2019-04-30T03:20:03.680Z,101987.76
2019-04-30T03:22:34.445Z,101989.57
2019-04-30T03:25:05.408Z,101979.89
2019-04-30T03:27:36.057Z,101985.96
2019-04-30T03:30:11.650Z,101986.25
2019-04-30T03:32:42.897Z,101981.12
2019-04-30T03:35:13.156Z,101984.11
2019-04-30T03:37:54.016Z,101975.42
2019-04-30T03:40:24.679Z,101977.35
2019-04-30T03:42:55.396Z,101977.98
2019-04-30T03:45:30.276Z,101975.55
2019-04-30T03:48:01.991Z,101972.39
2019-04-30T03:50:48.742Z,101976.72
2019-04-30T03:53:05.435Z,101976.23
2019-04-30T03:55:40.050Z,101969.95
2019-04-30T03:58:11.478Z,101976.09
2019-04-30T04:00:47.124Z,101976.83
2019-04-30T04:03:22.901Z,101977.59
2019-04-30T04:06:21.264Z,101971.70
2019-04-30T04:08:55.631Z,101976.09
2019-04-30T04:11:29.783Z,101970.25
2019-04-30T04:14:00.205Z,101974.09
2019-04-30T04:16:32.748Z,101972.67
2019-04-30T04:19:09.666Z,101974.56
2019-04-30T04:21:40.591Z,101972.14
2019-04-30T04:24:11.382Z,101973.39
2019-04-30T04:26:43.952Z,101977.68
2019-04-30T04:29:14.487Z,101973.91
2019-04-30T04:31:56.064Z,101977.14
2019-04-30T04:34:26.663Z,101976.00
2019-04-30T04:36:59.863Z,101981.12
2019-04-30T04:39:29.816Z,101968.70
2019-04-30T04:42:00.529Z,101972.95
2019-04-30T04:44:31.168Z,101976.28
2019-04-30T04:47:01.797Z,101974.39
2019-04-30T04:49:32.466Z,101976.23
2019-04-30T04:52:03.113Z,101977.09
2019-04-30T04:54:33.816Z,101977.91
2019-04-30T04:57:14.831Z,101978.53
2019-04-30T04:59:42.528Z,101988.52
2019-04-30T05:02:32.159Z,101989.59
2019-04-30T05:05:02.341Z,101986.81
2019-04-30T05:07:32.985Z,101986.61
2019-04-30T05:10:03.681Z,101984.93
2019-04-30T05:12:34.293Z,101987.70
2019-04-30T05:15:05.223Z,101984.73
2019-04-30T05:17:50.012Z,101984.47
2019-04-30T05:20:20.697Z,101985.98
2019-04-30T05:22:52.335Z,101993.34
2019-04-30T05:25:29.577Z,101988.14
2019-04-30T05:28:00.461Z,101989.11
2019-04-30T05:30:35.953Z,101991.73
2019-04-30T05:33:23.030Z,101992.66
2019-04-30T05:35:53.859Z,101992.56
2019-04-30T05:38:24.466Z,101989.86
2019-04-30T05:40:55.131Z,101996.15
2019-04-30T05:43:25.835Z,102002.98
2019-04-30T05:45:58.541Z,102005.03
2019-04-30T05:48:29.738Z,102005.66
2019-04-30T05:51:04.625Z,102013.51
2019-04-30T05:53:35.241Z,102011.44
2019-04-30T05:56:11.053Z,102011.33
2019-04-30T05:58:41.849Z,102017.66
2019-04-30T06:01:12.574Z,102010.02
2019-04-30T06:03:43.169Z,102016.77
2019-04-30T06:06:13.934Z,102013.34
2019-04-30T06:09:06.238Z,102015.66
2019-04-30T06:11:53.915Z,102017.39
2019-04-30T06:14:48.872Z,102022.61
2019-04-30T06:17:19.840Z,102018.58
2019-04-30T06:19:51.416Z,102023.86
2019-04-30T06:22:22.556Z,102025.12
2019-04-30T06:24:53.165Z,102026.75
2019-04-30T06:27:23.932Z,102031.50
2019-04-30T06:29:54.531Z,102029.81
2019-04-30T06:32:25.354Z,102027.46
2019-04-30T06:34:56.576Z,102025.77
2019-04-30T06:37:28.784Z,102029.36
2019-04-30T06:39:59.813Z,102032.52
2019-04-30T06:42:31.520Z,102037.66
2019-04-30T06:45:02.482Z,102033.68
2019-04-30T06:47:34.474Z,102029.83
2019-04-30T06:50:05.770Z,102034.18
2019-04-30T06:52:36.485Z,102027.47
2019-04-30T06:55:07.180Z,102032.22
2019-04-30T06:57:38.401Z,102041.55
2019-04-30T07:00:12.199Z,102040.06
2019-04-30T07:02:43.890Z,102033.02
2019-04-30T07:05:18.689Z,102036.06
2019-04-30T07:08:09.003Z,102043.90
2019-04-30T07:10:36.175Z,102039.38
2019-04-30T07:13:14.711Z,102035.45
2019-04-30T07:15:45.334Z,102041.47
2019-04-30T07:18:16.090Z,102033.70
2019-04-30T07:20:48.502Z,102038.03
2019-04-30T07:23:19.385Z,102035.66
2019-04-30T07:25:51.714Z,102035.03
2019-04-30T07:28:43.776Z,102036.06
2019-04-30T07:31:11.721Z,102041.11
2019-04-30T07:33:34.871Z,102044.33
2019-04-30T07:36:05.546Z,102044.48
2019-04-30T07:38:43.178Z,102045.50
2019-04-30T07:41:09.538Z,102047.53
2019-04-30T07:43:40.307Z,102056.92
2019-04-30T07:46:11.021Z,102050.02
2019-04-30T07:48:41.803Z,102051.82
2019-04-30T07:51:13.055Z,102048.44
2019-04-30T07:53:43.950Z,102054.34
2019-04-30T07:56:25.721Z,102050.42
2019-04-30T07:58:46.879Z,102056.30
2019-04-30T08:01:19.558Z,102050.59
2019-04-30T08:03:52.166Z,102059.42
2019-04-30T08:06:24.827Z,102058.80
2019-04-30T08:08:58.327Z,102056.43
2019-04-30T08:11:29.369Z,102051.87
2019-04-30T08:14:00.344Z,102052.62
2019-04-30T08:16:31.068Z,102046.87
2019-04-30T08:19:01.684Z,102052.56
2019-04-30T08:21:32.365Z,102050.60
2019-04-30T08:24:05.066Z,102059.61
2019-04-30T08:26:36.124Z,102054.77
2019-04-30T08:29:06.838Z,102058.42
2019-04-30T08:31:41.511Z,102056.15
2019-04-30T08:34:12.214Z,102060.54
2019-04-30T08:36:42.783Z,102058.23
2019-04-30T08:39:13.378Z,102057.77
2019-04-30T08:41:44.057Z,102054.87
2019-04-30T08:44:14.720Z,102054.39
2019-04-30T08:46:45.314Z,102054.88
2019-04-30T08:49:16.063Z,102061.41
2019-04-30T08:51:48.757Z,102057.02
2019-04-30T08:54:19.874Z,102057.31
2019-04-30T08:56:50.946Z,102053.50
2019-04-30T08:59:21.650Z,102051.64
2019-04-30T09:01:52.316Z,102052.39
2019-04-30T09:04:25.621Z,102051.86
2019-04-30T09:06:56.307Z,102057.78
2019-04-30T09:09:26.906Z,102050.84
2019-04-30T09:11:59.166Z,102055.22
2019-04-30T09:14:30.161Z,102050.44
2019-04-30T09:17:00.999Z,102048.20
2019-04-30T09:19:31.671Z,102055.45
2019-04-30T09:22:02.254Z,102042.95
2019-04-30T09:24:32.936Z,102046.07
2019-04-30T09:27:03.523Z,102049.81
2019-04-30T09:29:34.216Z,102045.75
2019-04-30T09:32:04.881Z,102040.80
2019-04-30T09:34:35.476Z,102039.11
2019-04-30T09:37:06.128Z,102042.71
2019-04-30T09:39:36.713Z,102042.97
2019-04-30T09:42:09.148Z,102042.48
2019-04-30T09:44:39.921Z,102035.05
2019-04-30T09:47:11.574Z,102033.87
2019-04-30T09:49:42.254Z,102036.09
2019-04-30T09:52:12.829Z,102031.23
2019-04-30T09:54:43.537Z,102032.39
2019-04-30T09:57:15.099Z,102027.95
2019-04-30T09:59:45.694Z,102033.67
2019-04-30T10:02:16.366Z,102034.23
2019-04-30T10:04:47.750Z,102029.25
2019-04-30T10:07:19.522Z,102029.38
2019-04-30T10:09:50.950Z,102023.23
2019-04-30T10:12:22.029Z,102021.20
2019-04-30T10:14:52.740Z,102020.86
2019-04-30T10:17:39.975Z,102009.56
2019-04-30T10:20:12.724Z,102002.59
2019-04-30T10:22:43.318Z,102005.52
2019-04-30T10:25:14.212Z,102000.58
2019-04-30T10:27:44.893Z,101999.53
2019-04-30T10:30:16.238Z,101995.14
2019-04-30T10:32:49.935Z,101992.55
2019-04-30T10:35:23.922Z,101995.84
2019-04-30T10:37:55.519Z,101994.42
2019-04-30T10:40:28.706Z,101992.13
2019-04-30T10:42:59.564Z,101992.13
2019-04-30T10:45:30.531Z,101985.07
2019-04-30T10:48:01.139Z,101989.99
2019-04-30T10:50:33.830Z,101979.74
2019-04-30T10:53:04.480Z,101981.05
2019-04-30T10:55:35.164Z,101982.42
2019-04-30T10:58:05.739Z,101981.72
2019-04-30T11:00:38.973Z,101977.22
2019-04-30T11:03:19.605Z,101975.75
2019-04-30T11:05:43.186Z,101969.88
2019-04-30T11:08:13.986Z,101970.73
2019-04-30T11:10:48.866Z,101964.89
2019-04-30T11:13:19.552Z,101965.60
2019-04-30T11:15:50.313Z,101968.42
2019-04-30T11:18:21.345Z,101956.37
2019-04-30T11:20:52.347Z,101951.47
2019-04-30T11:23:23.245Z,101950.89
2019-04-30T11:25:54.981Z,101956.45
2019-04-30T11:28:27.569Z,101951.80
2019-04-30T11:31:26.416Z,101949.63
2019-04-30T11:33:58.711Z,101945.78
2019-04-30T11:36:38.890Z,101947.84
2019-04-30T11:39:11.716Z,101939.28
2019-04-30T11:41:42.409Z,101939.17
2019-04-30T11:44:13.103Z,101933.20
2019-04-30T11:47:29.906Z,101931.63
2019-04-30T11:50:00.575Z,101930.76
2019-04-30T11:52:31.252Z,101920.06
2019-04-30T11:55:02.944Z,101920.16
2019-04-30T11:57:33.715Z,101912.39
2019-04-30T12:00:08.517Z,101911.11
2019-04-30T12:02:40.795Z,101903.43
2019-04-30T12:05:13.787Z,101903.61
2019-04-30T12:07:46.192Z,101897.77
2019-04-30T12:10:29.270Z,101904.78
2019-04-30T12:12:59.671Z,101901.18
2019-04-30T12:15:30.418Z,101894.88
2019-04-30T12:18:01.114Z,101894.77
2019-04-30T12:20:39.959Z,101901.70
2019-04-30T12:23:11.933Z,101900.28
2019-04-30T12:25:42.536Z,101899.34
2019-04-30T12:28:13.308Z,101896.92
2019-04-30T12:30:44.113Z,101902.13
2019-04-30T12:33:14.786Z,101890.92
2019-04-30T12:35:45.754Z,101897.33
2019-04-30T12:38:16.445Z,101890.73
2019-04-30T12:40:47.125Z,101887.17
2019-04-30T12:43:18.782Z,101893.36
2019-04-30T12:46:02.044Z,101890.41
2019-04-30T12:48:44.559Z,101893.36
2019-04-30T12:51:19.733Z,101894.38
2019-04-30T12:53:57.584Z,101884.54
2019-04-30T12:56:47.817Z,101888.97
2019-04-30T12:59:22.660Z,101876.17
2019-04-30T13:01:53.261Z,101880.39
2019-04-30T13:04:23.921Z,101877.01
2019-04-30T13:06:54.973Z,101864.66
2019-04-30T13:09:26.613Z,101865.44
2019-04-30T13:12:00.594Z,101864.32
2019-04-30T13:14:32.239Z,101855.82
2019-04-30T13:17:03.608Z,101858.97
2019-04-30T13:19:35.388Z,101849.26
2019-04-30T13:22:06.071Z,101856.29
2019-04-30T13:24:36.925Z,101850.37
2019-04-30T13:27:09.375Z,101851.37
2019-04-30T13:29:58.234Z,101843.34
2019-04-30T13:32:32.935Z,101848.27
2019-04-30T13:35:03.886Z,101841.20
2019-04-30T13:37:57.078Z,101840.25
2019-04-30T13:40:33.356Z,101838.48
2019-04-30T13:43:05.901Z,101839.17
2019-04-30T13:45:36.586Z,101831.80
2019-04-30T13:48:08.966Z,101840.74
2019-04-30T13:50:41.784Z,101838.70
2019-04-30T13:53:12.399Z,101827.96
2019-04-30T13:55:48.854Z,101828.68
2019-04-30T13:58:19.377Z,101831.13
2019-04-30T14:00:50.024Z,101821.83
2019-04-30T14:03:23.291Z,101815.45
2019-04-30T14:05:54.103Z,101826.44
2019-04-30T14:08:29.101Z,101819.55
2019-04-30T14:10:59.905Z,101821.59
2019-04-30T14:13:30.620Z,101825.91
2019-04-30T14:16:03.446Z,101821.91
2019-04-30T14:18:48.832Z,101812.21
2019-04-30T14:21:32.243Z,101809.92
2019-04-30T14:23:52.691Z,101810.64
2019-04-30T14:26:40.912Z,101800.66
2019-04-30T14:29:17.217Z,101802.39
2019-04-30T14:31:52.070Z,101808.24
2019-04-30T14:34:22.795Z,101802.59
2019-04-30T14:36:53.418Z,101802.39
2019-04-30T14:39:26.118Z,101795.82
2019-04-30T14:42:00.075Z,101798.15
2019-04-30T14:44:34.626Z,101798.15
2019-04-30T14:47:11.574Z,101800.79
2019-04-30T14:49:59.647Z,101800.11
2019-04-30T14:52:24.794Z,101802.23
2019-04-30T14:55:13.500Z,101787.48
2019-04-30T14:57:45.913Z,101794.50
2019-04-30T15:00:31.966Z,101794.45
2019-04-30T15:03:16.709Z,101787.92
2019-04-30T15:05:52.569Z,101793.81
2019-04-30T15:08:25.451Z,101783.48
2019-04-30T15:10:56.185Z,101782.41
2019-04-30T15:13:29.518Z,101789.89
2019-04-30T15:16:00.355Z,101786.16
2019-04-30T15:18:32.080Z,101788.12
2019-04-30T15:21:02.849Z,101789.81
2019-04-30T15:23:56.375Z,101788.61
2019-04-30T15:26:41.629Z,101783.88
2019-04-30T15:29:16.325Z,101782.37
2019-04-30T15:31:48.183Z,101785.11
2019-04-30T15:34:19.388Z,101775.58
2019-04-30T15:36:50.474Z,101777.97
2019-04-30T15:39:26.163Z,101781.41
2019-04-30T15:42:09.669Z,101784.95
2019-04-30T15:44:45.347Z,101782.84
2019-04-30T15:47:19.715Z,101773.59
2019-04-30T15:49:50.657Z,101777.03
2019-04-30T15:52:35.901Z,101775.55
2019-04-30T15:55:06.765Z,101775.22
2019-04-30T15:57:45.249Z,101772.19
2019-04-30T16:00:18.727Z,101765.86
2019-04-30T16:03:04.631Z,101772.72
2019-04-30T16:05:40.409Z,101777.52
2019-04-30T16:08:15.679Z,101765.30
2019-04-30T16:10:51.090Z,101765.30
2019-04-30T16:13:46.395Z,101757.86
2019-04-30T16:16:19.212Z,101765.66
2019-04-30T16:18:50.503Z,101763.91
2019-04-30T16:21:22.424Z,101756.19
2019-04-30T16:24:12.956Z,101756.16
2019-04-30T16:26:49.494Z,101749.55
2019-04-30T16:29:16.612Z,101753.04
2019-04-30T16:31:49.415Z,101752.11
2019-04-30T16:34:24.887Z,101756.59
2019-04-30T16:36:56.700Z,101753.27
2019-04-30T16:39:29.795Z,101753.92
2019-04-30T16:42:00.821Z,101748.85
2019-04-30T16:44:38.541Z,101748.09
2019-04-30T16:47:14.470Z,101747.57
2019-04-30T16:49:45.211Z,101752.00
2019-04-30T16:52:18.910Z,101749.63
2019-04-30T16:54:52.819Z,101750.83
2019-04-30T16:57:30.301Z,101746.20
2019-04-30T17:00:00.780Z,101747.10
2019-04-30T17:02:32.352Z,101748.70
2019-04-30T17:05:08.539Z,101738.41
2019-04-30T17:07:43.637Z,101735.52
2019-04-30T17:10:16.148Z,101740.19
2019-04-30T17:13:01.907Z,101741.50
2019-04-30T17:15:43.302Z,101737.59
2019-04-30T17:18:13.966Z,101735.53
2019-04-30T17:20:48.584Z,101735.16
2019-04-30T17:23:19.486Z,101735.28
2019-04-30T17:25:51.358Z,101738.25
2019-04-30T17:28:22.088Z,101738.06
2019-04-30T17:30:59.000Z,101737.91
2019-04-30T17:33:29.795Z,101741.61
2019-04-30T17:36:00.487Z,101736.23
2019-04-30T17:38:34.794Z,101743.58
2019-04-30T17:41:07.749Z,101740.69
2019-04-30T17:43:41.633Z,101746.13
2019-04-30T17:46:15.468Z,101739.16
2019-04-30T17:48:46.341Z,101742.68
2019-04-30T17:51:18.121Z,101742.20
2019-04-30T17:54:06.663Z,101738.24
2019-04-30T17:56:38.787Z,101744.05
2019-04-30T17:59:09.999Z,101745.44
2019-04-30T18:01:42.461Z,101741.14
2019-04-30T18:04:14.175Z,101743.28
2019-04-30T18:06:45.735Z,101746.21
2019-04-30T18:09:19.078Z,101742.50
2019-04-30T18:11:50.091Z,101746.98
2019-04-30T18:14:20.947Z,101742.50
2019-04-30T18:16:51.621Z,101742.05
2019-04-30T18:19:46.003Z,101746.13
2019-04-30T18:22:30.495Z,101741.35
2019-04-30T18:25:05.730Z,101753.51
2019-04-30T18:27:46.198Z,101745.34
2019-04-30T18:30:19.034Z,101745.45
2019-04-30T18:33:02.244Z,101749.48
2019-04-30T18:35:32.979Z,101745.69
2019-04-30T18:38:03.658Z,101752.97
2019-04-30T18:40:35.445Z,101748.88
2019-04-30T18:43:18.911Z,101752.39
2019-04-30T18:45:53.235Z,101757.13
2019-04-30T18:48:31.106Z,101755.19
2019-04-30T18:51:15.969Z,101758.02
2019-04-30T18:53:35.914Z,101756.45
2019-04-30T18:56:12.162Z,101756.45
2019-04-30T18:58:42.911Z,101760.23
2019-04-30T19:01:14.150Z,101758.78
2019-04-30T19:03:45.900Z,101757.97
2019-04-30T19:06:26.267Z,101757.88
2019-04-30T19:09:16.858Z,101762.93
2019-04-30T19:12:11.246Z,101765.56
2019-04-30T19:15:02.183Z,101771.17
2019-04-30T19:17:52.526Z,101771.92
2019-04-30T19:20:33.812Z,101778.23
2019-04-30T19:23:06.154Z,101786.45
2019-04-30T19:25:38.626Z,101779.94
2019-04-30T19:28:14.331Z,101782.23
2019-04-30T19:30:57.649Z,101783.49
2019-04-30T19:33:29.230Z,101780.95
2019-04-30T19:36:00.572Z,101786.23
2019-04-30T19:38:31.460Z,101781.78
2019-04-30T19:41:02.250Z,101784.87
2019-04-30T19:43:33.063Z,101786.70
2019-04-30T19:46:09.046Z,101789.20
2019-04-30T19:48:41.955Z,101789.66
2019-04-30T19:51:14.417Z,101787.05
2019-04-30T19:53:51.831Z,101787.27
2019-04-30T19:56:23.209Z,101789.09
2019-04-30T19:59:02.073Z,101792.23
2019-04-30T20:01:28.691Z,101782.94
2019-04-30T20:04:00.830Z,101785.08
2019-04-30T20:06:31.931Z,101780.74
2019-04-30T20:09:03.331Z,101783.67
2019-04-30T20:11:42.541Z,101775.23
2019-04-30T20:14:18.658Z,101774.44
2019-04-30T20:16:51.755Z,101778.30
2019-04-30T20:19:23.064Z,101774.33
2019-04-30T20:22:05.675Z,101784.39
2019-04-30T20:24:42.194Z,101779.84
2019-04-30T20:27:21.998Z,101777.30
2019-04-30T20:29:55.978Z,101777.18
2019-04-30T20:32:36.629Z,101781.59
2019-04-30T20:35:07.146Z,101774.60
2019-04-30T20:38:00.034Z,101769.66
2019-04-30T20:40:43.346Z,101774.53
2019-04-30T20:43:08.459Z,101779.07
2019-04-30T20:45:39.042Z,101774.56
2019-04-30T20:48:10.795Z,101773.78
2019-04-30T20:50:50.713Z,101770.09
2019-04-30T20:53:21.635Z,101770.72
2019-04-30T20:55:54.726Z,101773.23
2019-04-30T20:58:25.360Z,101770.53
2019-04-30T21:01:04.095Z,101770.94
2019-04-30T21:03:29.592Z,101768.70
2019-04-30T21:06:11.227Z,101768.03
2019-04-30T21:08:47.691Z,101770.10
2019-04-30T21:11:30.399Z,101763.42
2019-04-30T21:14:08.956Z,101765.02
2019-04-30T21:16:46.505Z,101763.22
2019-04-30T21:19:17.651Z,101767.44
2019-04-30T21:22:00.734Z,101759.16
2019-04-30T21:24:32.851Z,101768.23
2019-04-30T21:27:04.028Z,101760.98
2019-04-30T21:29:35.146Z,101755.57
2019-04-30T21:32:07.912Z,101757.58
2019-04-30T21:34:44.297Z,101754.79
2019-04-30T21:37:37.338Z,101758.15
2019-04-30T21:40:09.714Z,101756.24
2019-04-30T21:42:52.563Z,101751.77
2019-04-30T21:45:25.114Z,101747.16
2019-04-30T21:48:19.154Z,101748.69
2019-04-30T21:51:11.372Z,101741.98
2019-04-30T21:53:46.789Z,101744.86
2019-04-30T21:56:19.376Z,101744.69
2019-04-30T21:59:01.603Z,101757.17
2019-04-30T22:01:32.642Z,101754.89
2019-04-30T22:04:14.700Z,101762.59
2019-04-30T22:07:00.699Z,101754.47
2019-04-30T22:09:43.489Z,101747.88
2019-04-30T22:12:23.656Z,101749.23
2019-04-30T22:14:55.551Z,101747.61
2019-04-30T22:17:26.300Z,101737.48
2019-04-30T22:19:59.699Z,101744.24
2019-04-30T22:22:30.449Z,101741.70
2019-04-30T22:25:01.606Z,101742.72
2019-04-30T22:27:33.591Z,101746.55
2019-04-30T22:30:04.929Z,101746.83
2019-04-30T22:32:51.931Z,101749.52
2019-04-30T22:35:44.833Z,101745.96
2019-04-30T22:38:29.083Z,101744.12
2019-04-30T22:41:06.368Z,101742.02
2019-04-30T22:43:38.462Z,101740.42
2019-04-30T22:46:14.320Z,101739.95
2019-04-30T22:48:47.059Z,101729.20
2019-04-30T22:51:18.834Z,101739.59
2019-04-30T22:53:51.651Z,101729.25
2019-04-30T22:56:25.568Z,101737.30
2019-04-30T22:58:56.629Z,101732.15
2019-04-30T23:01:34.982Z,101734.27
2019-04-30T23:04:14.376Z,101733.69
2019-04-30T23:06:45.096Z,101726.69
2019-04-30T23:09:16.409Z,101731.33
2019-04-30T23:11:47.175Z,101729.98
2019-04-30T23:14:17.837Z,101719.23
2019-04-30T23:16:56.384Z,101724.80
2019-04-30T23:19:31.049Z,101720.83
2019-04-30T23:22:07.023Z,101716.81
2019-04-30T23:24:37.721Z,101717.57
2019-04-30T23:27:13.115Z,101716.77
2019-04-30T23:29:43.711Z,101708.20
2019-04-30T23:32:17.887Z,101704.87
2019-04-30T23:34:51.621Z,101704.80
2019-04-30T23:37:24.343Z,101708.41
2019-04-30T23:40:23.745Z,101706.59
2019-04-30T23:42:55.407Z,101703.73
2019-04-30T23:45:27.258Z,101701.04
2019-04-30T23:47:57.984Z,101691.88
2019-04-30T23:50:28.733Z,101688.25
2019-04-30T23:53:10.559Z,101689.94
2019-04-30T23:55:41.368Z,101687.65
2019-04-30T23:58:12.094Z,101678.80
